Time;durP1;ratioP1;P1;durP2;ratioP2;P2;SDS_P1;SDS_P2;PMS_P1;PMS_P2;Temp;Humidity;BMP_temperature;BMP_pressure;BME280_temperature;BME280_humidity;BME280_pressure;Samples;Min_cycle;Max_cycle;Signal;HPM_P1;HPM_P2
2022/06/19 00:13:51;;;;;;;8.73;5.05;;;;;;;20.90;82.18;100122.95;739819;1155;115619;-74
2022/06/19 00:28:54;;;;;;;7.78;4.68;;;;;;;20.57;83.39;100129.90;740019;1155;115613;-73
2022/06/19 00:44:03;;;;;;;5.68;4.65;;;;;;;20.57;84.21;100142.41;739654;1155;115758;-73
2022/06/19 00:59:07;;;;;;;9.70;4.80;;;;;;;20.41;84.69;100154.29;739778;1153;115320;-74
2022/06/19 01:14:13;;;;;;;5.65;4.05;;;;;;;20.29;85.03;100146.08;740346;1153;115200;-73
2022/06/19 01:29:19;;;;;;;5.53;4.50;;;;;;;19.98;85.76;100122.66;740054;1155;115385;-73
2022/06/19 01:44:21;;;;;;;9.18;5.55;;;;;;;19.71;86.57;100118.05;739898;1153;114118;-73
2022/06/19 01:59:26;;;;;;;18.15;12.75;;;;;;;19.40;88.06;100116.70;740075;1155;114216;-73
2022/06/19 02:14:31;;;;;;;16.25;9.05;;;;;;;19.16;90.08;100119.84;740013;1155;114413;-73
2022/06/19 02:29:39;;;;;;;15.70;8.67;;;;;;;19.00;91.31;100121.78;739994;1153;114630;-73
2022/06/19 02:44:42;;;;;;;11.63;8.33;;;;;;;18.97;92.63;100105.42;739983;1153;114970;-73
2022/06/19 02:59:44;;;;;;;14.25;8.23;;;;;;;18.89;93.03;100107.20;739815;1153;115773;-73
2022/06/19 03:14:47;;;;;;;15.45;9.40;;;;;;;19.10;93.53;100108.97;740192;1155;115371;-74
2022/06/19 03:29:49;;;;;;;9.70;6.63;;;;;;;19.17;93.67;100087.73;739861;1153;115365;-73
2022/06/19 03:44:52;;;;;;;8.03;6.58;;;;;;;19.28;94.49;100057.09;740050;1154;115692;-72
2022/06/19 03:59:54;;;;;;;9.27;6.53;;;;;;;19.93;94.23;100040.77;740144;1155;115286;-74
2022/06/19 04:14:56;;;;;;;11.75;7.50;;;;;;;20.31;93.73;100037.51;740496;1153;114994;-73
2022/06/19 04:29:59;;;;;;;8.80;7.55;;;;;;;20.93;91.71;100031.88;740576;1153;114566;-73
2022/06/19 04:45:01;;;;;;;13.17;8.07;;;;;;;21.43;91.55;100039.28;740366;1154;114193;-73
2022/06/19 05:00:07;;;;;;;14.43;8.20;;;;;;;21.93;90.46;100003.91;740123;1155;115611;-72
2022/06/19 05:15:10;;;;;;;10.95;6.45;;;;;;;22.44;89.95;99983.37;740090;1153;114961;-73
2022/06/19 05:30:14;;;;;;;5.17;3.90;;;;;;;23.06;88.32;99969.91;740393;1155;114092;-74
2022/06/19 05:45:16;;;;;;;10.70;5.70;;;;;;;23.62;87.47;99983.17;743692;1154;115613;-74
2022/06/19 06:00:18;;;;;;;5.25;3.93;;;;;;;24.15;85.00;99970.84;741082;1153;114223;-74
2022/06/19 06:15:21;;;;;;;5.10;3.07;;;;;;;24.58;81.43;99966.94;740277;1155;115266;-74
2022/06/19 06:30:23;;;;;;;3.73;2.63;;;;;;;25.31;79.14;99957.65;740703;1154;113938;-74
2022/06/19 06:45:26;;;;;;;4.35;3.05;;;;;;;25.53;77.01;99947.06;740038;1153;115375;-74
2022/06/19 07:00:28;;;;;;;3.78;2.73;;;;;;;26.18;76.71;99942.18;739898;1154;115528;-74
2022/06/19 07:15:30;;;;;;;5.90;2.50;;;;;;;26.53;75.58;99922.22;740684;1153;114504;-74
2022/06/19 07:30:32;;;;;;;4.30;3.20;;;;;;;27.10;74.22;99909.42;740835;1155;115221;-72
2022/06/19 07:45:35;;;;;;;3.80;2.98;;;;;;;27.31;73.61;99870.84;740254;1153;115513;-70
2022/06/19 08:00:39;;;;;;;4.87;3.13;;;;;;;27.86;74.25;99858.07;740617;1155;114285;-68
2022/06/19 08:15:41;;;;;;;7.60;2.58;;;;;;;29.05;72.83;99835.03;740157;1153;115367;-68
2022/06/19 08:30:44;;;;;;;8.10;2.83;;;;;;;29.54;70.13;99841.79;739998;1155;115377;-69
2022/06/19 08:46:03;;;;;;;5.00;2.50;;;;;;;30.12;69.04;99804.64;739844;1153;115188;-69
2022/06/19 09:01:28;;;;;;;3.63;2.10;;;;;;;31.32;68.67;99792.77;740072;1155;113809;-69
2022/06/19 09:16:40;;;;;;;3.73;2.20;;;;;;;31.62;66.82;99766.45;740055;1153;115491;-69
2022/06/19 09:31:57;;;;;;;6.50;2.43;;;;;;;32.46;66.39;99711.64;740909;1153;115129;-69
2022/06/19 09:47:19;;;;;;;9.53;2.95;;;;;;;33.03;65.53;99694.41;740511;1153;114995;-85
2022/06/19 10:02:33;;;;;;;7.28;4.00;;;;;;;33.06;64.01;99677.54;741022;1155;114820;-75
2022/06/19 10:17:51;;;;;;;8.00;4.18;;;;;;;33.40;63.75;99670.91;740230;1155;114907;-73
2022/06/19 10:33:21;;;;;;;6.87;3.73;;;;;;;33.67;64.32;99637.45;740444;1153;114517;-74
2022/06/19 10:48:32;;;;;;;6.83;3.88;;;;;;;34.02;63.21;99615.20;740107;1153;114810;-75
2022/06/19 11:19:03;;;;;;;6.13;3.35;;;;;;;34.18;58.70;99558.50;740635;1154;115506;-75
2022/06/19 11:49:42;;;;;;;7.97;4.13;;;;;;;35.18;58.46;99518.22;740565;1153;115178;-73
2022/06/19 12:04:53;;;;;;;6.98;2.98;;;;;;;34.80;58.15;99496.97;741619;1152;114958;-74
2022/06/19 12:19:59;;;;;;;10.83;3.75;;;;;;;35.39;56.97;99457.66;740490;1153;115216;-82
2022/06/19 12:35:08;;;;;;;3.67;2.67;;;;;;;35.79;55.31;99441.06;740516;1155;114954;-80
2022/06/19 12:50:28;;;;;;;8.57;2.60;;;;;;;36.27;54.14;99423.58;741054;1153;113955;-78
2022/06/19 13:06:08;;;;;;;7.18;2.93;;;;;;;36.39;53.61;99416.66;740121;1155;113911;-77
2022/06/19 13:21:13;;;;;;;8.88;3.48;;;;;;;36.35;54.07;99383.75;740625;1153;114008;-79
2022/06/19 13:36:32;;;;;;;5.73;3.10;;;;;;;36.37;53.69;99364.30;740509;1153;114804;-79
2022/06/19 13:51:57;;;;;;;8.25;3.08;;;;;;;36.16;53.85;99365.03;740524;1153;114932;-76
2022/06/19 14:07:25;;;;;;;6.20;2.75;;;;;;;36.80;54.43;99371.39;740776;1154;113963;-76
2022/06/19 14:22:39;;;;;;;6.97;2.60;;;;;;;36.19;54.30;99333.55;740403;1153;114838;-75
2022/06/19 14:37:47;;;;;;;7.68;2.95;;;;;;;36.38;55.38;99322.23;740563;1153;114013;-75
2022/06/19 14:53:17;;;;;;;7.83;2.80;;;;;;;35.97;55.94;99292.59;740470;1153;114168;-77
2022/06/19 15:08:30;;;;;;;8.73;3.00;;;;;;;35.33;56.14;99298.90;740419;1153;114179;-83
2022/06/19 15:23:32;;;;;;;9.08;3.00;;;;;;;35.16;57.45;99291.59;741134;1155;114891;-74
2022/06/19 15:39:04;;;;;;;6.05;2.65;;;;;;;34.88;57.71;99264.70;743283;1153;113881;-72
2022/06/19 15:54:15;;;;;;;8.25;3.33;;;;;;;34.61;58.24;99233.18;740596;1155;115306;-75
2022/06/19 16:09:22;;;;;;;12.48;6.78;;;;;;;34.46;57.92;99227.10;740255;1155;115548;-75
2022/06/19 16:24:33;;;;;;;6.45;2.80;;;;;;;34.00;56.61;99206.73;740121;1153;114463;-74
2022/06/19 16:55:24;;;;;;;4.33;2.38;;;;;;;33.24;54.69;99227.55;740028;1155;114135;-74
2022/06/19 17:10:27;;;;;;;8.98;1.88;;;;;;;32.84;54.95;99213.92;740294;1155;114586;-73
2022/06/19 17:25:33;;;;;;;4.68;2.28;;;;;;;32.45;57.00;99220.80;741460;1155;114576;-73
2022/06/19 17:40:42;;;;;;;5.65;2.30;;;;;;;32.01;57.67;99210.33;740148;1153;115701;-73
2022/06/19 17:55:44;;;;;;;5.55;2.05;;;;;;;31.49;57.98;99196.20;740657;1155;114421;-73
2022/06/19 18:10:53;;;;;;;5.70;2.53;;;;;;;31.24;58.38;99181.24;740166;1154;114841;-74
2022/06/19 18:25:55;;;;;;;5.73;2.30;;;;;;;30.39;59.28;99152.32;740533;1153;115266;-73
2022/06/19 18:40:58;;;;;;;6.90;2.40;;;;;;;29.34;62.75;99253.89;740536;1153;113965;-74
2022/06/19 18:56:01;;;;;;;4.35;1.63;;;;;;;26.13;66.50;99448.46;740699;1155;113989;-74
2022/06/19 19:11:05;;;;;;;14.53;4.87;;;;;;;23.49;72.35;99608.67;741843;1153;114445;-80
2022/06/19 19:26:12;;;;;;;8.08;2.50;;;;;;;22.24;73.54;99645.09;745451;1153;114434;-78
2022/06/19 19:41:15;;;;;;;12.90;2.20;;;;;;;21.92;73.87;99689.88;744542;1155;113884;-80
2022/06/19 19:56:21;;;;;;;6.43;1.80;;;;;;;21.45;75.09;99560.47;742289;1155;114010;-80
2022/06/19 20:11:28;;;;;;;6.20;2.05;;;;;;;21.24;77.72;99614.30;742468;1153;114329;-80
2022/06/19 20:26:41;;;;;;;8.30;2.58;;;;;;;21.18;81.51;99634.67;741195;1155;113917;-79
2022/06/19 20:57:06;;;;;;;8.73;2.03;;;;;;;20.98;85.15;99562.06;742299;1154;114731;-80
2022/06/19 21:12:10;;;;;;;5.67;2.43;;;;;;;21.07;86.89;99556.20;741997;1155;115433;-79
2022/06/19 21:27:13;;;;;;;13.28;5.83;;;;;;;20.81;86.84;99591.94;741832;1155;114022;-78
2022/06/19 21:42:16;;;;;;;10.48;3.40;;;;;;;20.67;88.74;99601.08;742341;1154;115746;-80
2022/06/19 21:57:18;;;;;;;17.28;9.58;;;;;;;20.04;90.13;99645.34;741853;1155;114948;-79
2022/06/19 22:12:20;;;;;;;6.00;3.10;;;;;;;19.85;93.28;99663.86;742054;1153;114106;-80
2022/06/19 22:27:30;;;;;;;9.93;2.73;;;;;;;19.55;94.90;99668.84;741944;1155;114012;-79
2022/06/19 22:42:38;;;;;;;7.08;2.88;;;;;;;19.12;97.54;99663.00;741717;1154;114147;-79
2022/06/19 22:57:49;;;;;;;6.38;2.90;;;;;;;19.08;98.33;99664.44;741656;1155;115439;-78
2022/06/19 23:12:51;;;;;;;5.53;3.23;;;;;;;19.01;98.16;99697.36;741823;1155;114736;-79
2022/06/19 23:27:56;;;;;;;8.35;3.45;;;;;;;18.79;98.81;99713.45;741916;1154;137352;-79
2022/06/19 23:42:58;;;;;;;6.80;3.30;;;;;;;18.96;99.35;99719.22;742225;1153;114337;-79
2022/06/19 23:58:06;;;;;;;8.80;3.40;;;;;;;18.73;99.55;99703.66;741773;1155;114641;-79
